Lancaster, CA

12:04 AM PST on December 08, 2016 (GMT -0800)
Near Sierra School | | Change Station

Elev 2421 ft 34.68 °N, 118.14 °W | Updated 15 seconds ago

Clear
Clear
32.6 °F
Feels Like 33 °F
N
0.0
Wind Variable Wind from East

Today
High -- | Low -- °F
--% Chance of Precip.
Yesterday
High -- | Low -- °F
Precip. -- in
Pressure 30.23 in
Visibility 10.0 miles
Clouds Clear
Windchill 33 °F
Dew Point 21 °F
Humidity 63%
Rainfall 0.00 in
Snow Depth Not available.
6:47 AM 4:41 PM
First Quarter, 61% visible
METAR KWJF 080756Z 31004KT 10SM CLR 01/M08 A3019 RMK AO2 SLP235 T00061083 401220006
Pressure 30.23 in
Visibility 10.0 miles
Clouds Clear
Windchill 33 °F
Dew Point 21 °F
Humidity 63%
Rainfall 0.00 in
Snow Depth Not available.
6:47 AM 4:41 PM
First Quarter, 61% visible
METAR KWJF 080756Z 31004KT 10SM CLR 01/M08 A3019 RMK AO2 SLP235 T00061083 401220006

10-Day Weather Forecast

Almanac

Astronomy

Dec. 08, 2016 Rise Set
Actual Time
Civil Twilight
Nautical Twilight
Astronomical Twilight
Moon
Length of Visible Light
Length of Day
Tomorrow will be .
, % of the Moon is Illuminated

Today's Extremes

State Highs State Lows

Community

WunderPhotos

Upload Photos

1,956,259 photos uploaded!

WunderBlog® & News

Nearby

Air Quality

  Air Quality AQ Index Pollutant
Not available.

Snow Depth

Station Depth Elevation

Earthquake Activity

City Distance Mag. Time & Date
Minimum magnitude displayed is 2.5.

Coastal Water Temperatures

Place Temperature

Stations

Nearby Weather Stations

Station Location Temp. Windchill Dew Point Humidity Wind Precip. Elev Updated Type
                   

Watches & Warnings

There are currently no watches in effect.